Time;durP1;ratioP1;P1;durP2;ratioP2;P2;SDS_P1;SDS_P2;PMS_P1;PMS_P2;Temp;Humidity;BMP_temperature;BMP_pressure;BME280_temperature;BME280_humidity;BME280_pressure;Samples;Min_cycle;Max_cycle;Signal;HPM_P1;HPM_P2
2023/07/15 00:02:20;;;;;;;;;2.67;0.67;;;;;26.71;38.84;100039.38;5048412;28;45570;-59
2023/07/15 00:04:45;;;;;;;;;2.00;0.67;;;;;26.74;39.05;100056.53;5045319;28;45220;-60
2023/07/15 00:07:11;;;;;;;;;0.00;0.00;;;;;26.71;39.41;100062.16;5052546;28;45067;-60
2023/07/15 00:09:36;;;;;;;;;1.00;1.00;;;;;26.67;39.55;100063.31;5049186;28;45232;-59
2023/07/15 00:12:02;;;;;;;;;2.00;2.00;;;;;26.62;39.71;100066.25;5051026;28;45262;-60
2023/07/15 00:14:30;;;;;;;;;1.00;1.00;;;;;26.59;40.04;100043.59;5051640;28;45232;-59
2023/07/15 00:16:55;;;;;;;;;1.00;1.00;;;;;26.34;40.07;100009.25;5032736;28;45053;-59
2023/07/15 00:19:22;;;;;;;;;0.33;0.33;;;;;26.54;40.53;100049.31;5051350;28;45023;-59
2023/07/15 00:21:48;;;;;;;;;3.33;1.67;;;;;26.53;40.67;100052.13;5042778;28;45450;-60
2023/07/15 00:24:14;;;;;;;;;0.67;0.67;;;;;26.48;40.48;100045.03;5051623;28;45230;-60
2023/07/15 00:26:40;;;;;;;;;2.67;1.00;;;;;26.31;40.90;100017.59;5050573;28;45099;-61
2023/07/15 00:29:06;;;;;;;;;2.00;1.00;;;;;26.43;41.06;100048.97;5034306;28;45317;-61
2023/07/15 00:31:34;;;;;;;;;1.33;1.00;;;;;26.46;41.17;100066.16;5048451;28;45189;-59
2023/07/15 00:34:00;;;;;;;;;0.33;0.33;;;;;26.42;41.71;100061.78;5049723;28;45532;-60
2023/07/15 00:36:26;;;;;;;;;0.67;0.67;;;;;26.39;41.63;100066.53;5050312;28;45323;-60
2023/07/15 00:38:53;;;;;;;;;1.33;1.00;;;;;26.28;42.05;100059.75;5049825;28;45445;-61
2023/07/15 00:41:29;;;;;;;;;1.00;1.00;;;;;26.29;41.95;100063.38;5046173;28;45175;-59
2023/07/15 00:46:22;;;;;;;;;1.00;1.00;;;;;26.28;42.03;100067.97;5044734;28;44956;-64
2023/07/15 00:48:54;;;;;;;;;1.00;1.00;;;;;26.25;42.48;100065.38;5046798;28;45017;-63
2023/07/15 00:51:20;;;;;;;;;3.00;2.00;;;;;26.12;42.59;100056.00;5045259;28;45175;-59
2023/07/15 00:53:46;;;;;;;;;13.67;8.67;;;;;26.15;42.83;100069.53;5050427;28;45537;-60
2023/07/15 00:56:12;;;;;;;;;50.00;36.50;;;;;25.89;43.09;100029.72;5025612;28;45455;-59
2023/07/15 00:58:38;;;;;;;;;89.25;66.00;;;;;26.16;43.66;100078.63;5050926;28;45108;-61
2023/07/15 01:01:06;;;;;;;;;77.00;54.75;;;;;26.11;43.59;100076.09;5046590;28;45334;-59
2023/07/15 01:03:32;;;;;;;;;61.50;46.50;;;;;26.10;43.96;100077.06;5047345;28;45167;-60
2023/07/15 01:05:57;;;;;;;;;58.75;45.50;;;;;26.08;43.96;100076.25;5045923;28;45815;-59
2023/07/15 01:08:22;;;;;;;;;29.25;28.00;;;;;26.02;44.88;100082.03;5043894;28;45076;-59
2023/07/15 01:10:48;;;;;;;;;26.67;19.00;;;;;25.98;44.97;100074.94;5044351;28;45155;-59
2023/07/15 01:13:14;;;;;;;;;12.00;10.00;;;;;25.93;45.22;100073.25;5049938;28;45132;-59
2023/07/15 01:15:39;;;;;;;;;6.67;6.33;;;;;25.93;45.57;100081.47;5029613;28;45681;-61
2023/07/15 01:18:04;;;;;;;;;5.33;3.00;;;;;25.85;45.88;100067.25;5047277;28;45458;-60
2023/07/15 01:20:32;;;;;;;;;14.00;9.00;;;;;25.83;45.99;100088.34;5031461;28;45213;-60
2023/07/15 01:22:57;;;;;;;;;6.33;6.00;;;;;25.72;46.32;100069.72;5031075;28;46892;-60
2023/07/15 01:25:23;;;;;;;;;6.33;5.00;;;;;25.77;47.13;100085.03;5050138;28;44947;-60
2023/07/15 01:27:48;;;;;;;;;6.67;5.00;;;;;25.55;46.92;100054.09;5050212;28;45052;-60
2023/07/15 01:30:15;;;;;;;;;1.00;1.00;;;;;25.45;47.24;100047.28;5050441;28;45125;-58
2023/07/15 01:32:40;;;;;;;;;1.67;1.67;;;;;25.63;47.72;100081.09;5043866;28;46621;-59
2023/07/15 01:35:07;;;;;;;;;0.00;0.00;;;;;25.61;47.89;100074.81;5051073;28;45121;-60
2023/07/15 01:37:32;;;;;;;;;3.00;1.67;;;;;25.55;48.18;100072.34;5032250;28;44939;-60
2023/07/15 01:39:58;;;;;;;;;1.00;1.00;;;;;25.54;48.31;100074.22;5049894;28;45081;-62
2023/07/15 01:42:23;;;;;;;;;1.67;1.67;;;;;25.51;48.48;100070.72;5051633;28;46018;-59
2023/07/15 01:44:49;;;;;;;;;3.00;1.00;;;;;25.41;48.94;100056.59;5033200;28;45206;-60
2023/07/15 01:47:14;;;;;;;;;0.67;0.67;;;;;25.43;49.05;100057.41;5053297;28;45342;-60
2023/07/15 01:49:42;;;;;;;;;0.00;0.00;;;;;25.45;49.12;100062.81;5054916;28;45155;-59
2023/07/15 01:52:08;;;;;;;;;1.00;1.00;;;;;25.43;49.41;100060.13;5052173;28;45664;-59
2023/07/15 01:54:34;;;;;;;;;2.67;0.33;;;;;25.42;49.64;100050.16;5054152;28;45168;-59
2023/07/15 01:56:59;;;;;;;;;1.00;0.00;;;;;25.33;49.35;100024.13;5054511;28;45036;-59
2023/07/15 01:59:24;;;;;;;;;1.00;1.00;;;;;25.43;49.45;100043.72;5054875;28;44994;-59
2023/07/15 02:01:50;;;;;;;;;0.00;0.00;;;;;25.43;49.69;100041.00;5029107;28;46902;-60
2023/07/15 02:04:16;;;;;;;;;0.00;0.00;;;;;25.41;49.72;100031.06;5053392;28;44979;-59
2023/07/15 02:06:41;;;;;;;;;1.33;0.00;;;;;25.40;49.96;100043.88;5052905;28;45155;-59
2023/07/15 02:09:07;;;;;;;;;0.00;0.00;;;;;25.37;50.06;100027.59;5035833;28;44987;-60
2023/07/15 02:11:34;;;;;;;;;0.00;0.00;;;;;25.34;50.36;100033.22;5047813;28;45955;-60
2023/07/15 02:13:59;;;;;;;;;0.67;0.67;;;;;25.31;50.27;100030.59;5053388;28;45198;-60
2023/07/15 02:16:26;;;;;;;;;0.00;0.00;;;;;25.25;50.55;100025.41;5053361;28;45313;-59
2023/07/15 02:18:51;;;;;;;;;2.00;1.00;;;;;25.26;50.64;100038.09;5030006;28;45334;-59
2023/07/15 02:21:17;;;;;;;;;0.00;0.00;;;;;25.24;50.92;100032.72;5050179;28;45321;-63
2023/07/15 02:23:42;;;;;;;;;0.67;0.67;;;;;25.24;51.04;100026.38;5052651;28;46138;-59
2023/07/15 02:26:07;;;;;;;;;1.00;0.00;;;;;25.10;51.17;100008.75;5052844;28;45093;-60
2023/07/15 02:28:33;;;;;;;;;1.33;0.67;;;;;25.19;51.29;100038.41;5051287;28;45037;-59
2023/07/15 02:30:59;;;;;;;;;0.00;0.00;;;;;25.18;51.31;100052.16;5050921;28;45742;-60
2023/07/15 02:33:25;;;;;;;;;1.00;1.00;;;;;25.17;51.51;100047.63;5053812;28;44969;-59
2023/07/15 02:35:50;;;;;;;;;2.33;1.00;;;;;25.07;51.97;100028.03;5052007;28;45238;-59
2023/07/15 02:38:16;;;;;;;;;1.00;1.00;;;;;25.06;51.95;100012.56;5035062;28;44927;-62
2023/07/15 02:40:41;;;;;;;;;1.33;1.33;;;;;25.12;51.85;100027.81;5053210;28;47839;-59
2023/07/15 02:43:07;;;;;;;;;2.67;1.00;;;;;25.10;52.46;100041.56;5052447;28;45069;-60
2023/07/15 02:45:33;;;;;;;;;0.00;0.00;;;;;25.09;52.68;100055.28;5052714;28;45152;-60
2023/07/15 02:47:58;;;;;;;;;3.00;0.00;;;;;24.82;52.39;100018.19;5054688;28;45187;-67
2023/07/15 02:50:23;;;;;;;;;0.67;0.67;;;;;24.83;53.26;100028.16;5048009;28;46327;-61
2023/07/15 02:52:49;;;;;;;;;1.33;1.00;;;;;25.00;52.73;100046.53;5032632;28;45519;-59
2023/07/15 02:55:14;;;;;;;;;1.00;1.00;;;;;24.79;52.71;100026.50;5053321;28;45201;-60
2023/07/15 02:57:40;;;;;;;;;2.00;0.33;;;;;25.01;53.14;100053.78;5053087;28;45297;-60
2023/07/15 03:00:11;;;;;;;;;1.00;1.00;;;;;24.96;52.75;100044.91;5051301;28;46773;-59
2023/07/15 03:02:37;;;;;;;;;0.00;0.00;;;;;24.95;53.14;100054.06;5048123;28;45231;-60
2023/07/15 03:05:02;;;;;;;;;0.67;0.67;;;;;24.93;53.15;100053.25;5045633;28;45163;-59
2023/07/15 03:07:28;;;;;;;;;1.00;1.00;;;;;24.93;53.08;100033.22;5050795;28;45364;-59
2023/07/15 03:09:54;;;;;;;;;0.00;0.00;;;;;24.92;53.74;100040.53;5034977;28;45187;-59
2023/07/15 03:12:19;;;;;;;;;1.00;1.00;;;;;24.73;53.63;100018.63;5029390;28;45339;-59
2023/07/15 03:14:45;;;;;;;;;2.00;0.33;;;;;24.84;53.92;100043.59;5050526;28;45104;-63
2023/07/15 03:17:10;;;;;;;;;0.00;0.00;;;;;24.81;54.03;100059.22;5034798;28;45116;-58
2023/07/15 03:19:37;;;;;;;;;2.00;1.00;;;;;24.78;54.07;100059.38;5051841;28;45413;-60
2023/07/15 03:22:03;;;;;;;;;4.00;1.00;;;;;24.77;54.25;100046.69;5052680;28;45129;-59
2023/07/15 03:24:29;;;;;;;;;2.33;1.00;;;;;24.73;55.00;100050.47;5052214;28;44981;-59
2023/07/15 03:26:55;;;;;;;;;1.00;1.00;;;;;24.50;54.72;100007.75;5053167;28;45279;-63
2023/07/15 03:29:22;;;;;;;;;0.00;0.00;;;;;24.66;55.33;100025.28;5051098;28;45737;-61
2023/07/15 03:31:47;;;;;;;;;0.33;0.00;;;;;24.49;55.41;100011.44;5051727;28;45325;-60
2023/07/15 03:34:13;;;;;;;;;1.67;1.00;;;;;24.62;55.48;100040.03;5051426;28;45213;-60
2023/07/15 03:36:38;;;;;;;;;0.67;0.00;;;;;24.60;55.71;100048.28;5052996;28;45255;-60
2023/07/15 03:39:05;;;;;;;;;0.33;0.33;;;;;24.61;55.74;100066.44;5051151;28;46360;-59
2023/07/15 03:41:30;;;;;;;;;1.33;1.33;;;;;24.58;55.79;100052.03;5053440;28;45005;-59
2023/07/15 03:43:56;;;;;;;;;0.67;0.67;;;;;24.54;55.83;100050.38;5052023;28;45296;-59
2023/07/15 03:46:23;;;;;;;;;1.00;1.00;;;;;24.52;55.83;100054.97;5047009;28;45144;-58
2023/07/15 03:48:49;;;;;;;;;3.00;0.00;;;;;24.46;56.27;100064.34;5047185;28;46501;-59
2023/07/15 03:51:14;;;;;;;;;0.00;0.00;;;;;24.26;56.07;100041.47;5051308;28;45183;-59
2023/07/15 03:53:39;;;;;;;;;0.00;0.00;;;;;24.40;56.27;100059.13;5052012;28;44998;-59
2023/07/15 03:56:05;;;;;;;;;2.33;1.00;;;;;24.45;56.19;100057.09;5048383;28;44883;-59
2023/07/15 03:58:30;;;;;;;;;1.00;1.00;;;;;24.43;56.58;100048.06;5052736;28;45262;-59
2023/07/15 04:00:56;;;;;;;;;1.00;1.00;;;;;24.41;56.36;100031.75;5050073;28;45370;-59
2023/07/15 04:03:21;;;;;;;;;1.33;1.00;;;;;24.45;56.71;100022.50;5051736;28;45243;-59
2023/07/15 04:05:46;;;;;;;;;0.00;0.00;;;;;24.44;56.45;100012.53;5033718;28;45135;-59
2023/07/15 04:08:12;;;;;;;;;5.00;1.00;;;;;24.42;56.84;100008.97;5048374;28;45792;-58
2023/07/15 04:10:38;;;;;;;;;0.67;0.67;;;;;24.49;56.55;100020.53;5049243;28;45082;-59
2023/07/15 04:13:03;;;;;;;;;0.00;0.00;;;;;24.42;56.64;100030.81;5050956;28;44985;-58
2023/07/15 04:15:30;;;;;;;;;1.00;1.00;;;;;24.50;56.71;100076.00;5048396;28;45195;-58
2023/07/15 04:17:55;;;;;;;;;2.00;0.33;;;;;24.42;56.89;100114.59;5052729;28;45354;-59
2023/07/15 04:20:21;;;;;;;;;2.67;1.00;;;;;24.34;56.46;100114.00;5050411;28;45267;-60
2023/07/15 04:22:46;;;;;;;;;0.33;0.33;;;;;24.28;56.88;100080.53;5047517;28;45445;-59
2023/07/15 04:25:12;;;;;;;;;1.67;1.00;;;;;24.16;57.14;100075.56;5050383;28;45412;-59
2023/07/15 04:27:38;;;;;;;;;1.67;1.67;;;;;24.00;56.67;100028.03;5046914;28;45371;-63
2023/07/15 04:30:05;;;;;;;;;1.00;1.00;;;;;23.69;56.45;99940.13;5047837;28;45211;-59
2023/07/15 04:32:30;;;;;;;;;1.00;1.00;;;;;24.31;56.70;100046.75;5052101;28;45095;-64
2023/07/15 04:34:56;;;;;;;;;1.33;1.33;;;;;24.32;56.82;100040.34;5052087;28;44961;-61
2023/07/15 04:37:22;;;;;;;;;0.33;0.33;;;;;24.32;56.90;100025.78;5026867;28;47241;-59
2023/07/15 04:39:47;;;;;;;;;1.00;0.00;;;;;23.99;56.89;99955.28;5051185;28;45305;-61
2023/07/15 04:42:13;;;;;;;;;2.00;0.00;;;;;24.26;57.15;100002.38;5033729;28;45304;-59
2023/07/15 04:44:38;;;;;;;;;0.33;0.33;;;;;24.24;57.22;100015.22;5048413;28;45471;-59
2023/07/15 04:47:04;;;;;;;;;1.33;0.67;;;;;24.23;57.46;100027.09;5046269;28;45172;-59
2023/07/15 04:49:29;;;;;;;;;2.00;0.00;;;;;24.18;57.40;100018.19;5052279;28;45171;-59
2023/07/15 04:51:55;;;;;;;;;0.33;0.33;;;;;24.08;57.49;100004.94;5052057;28;45251;-62
2023/07/15 04:54:20;;;;;;;;;1.00;1.00;;;;;24.10;57.05;100011.22;5049749;28;45533;-58
2023/07/15 04:56:46;;;;;;;;;1.00;1.00;;;;;24.17;57.11;100035.50;5048678;28;45086;-59
2023/07/15 04:59:11;;;;;;;;;0.33;0.00;;;;;24.21;57.28;100009.88;5046441;28;45455;-59
2023/07/15 05:01:37;;;;;;;;;0.00;0.00;;;;;24.27;58.23;100029.63;5032637;28;44979;-58
2023/07/15 05:04:03;;;;;;;;;1.00;1.00;;;;;24.26;59.29;100022.38;5017220;28;45173;-59
2023/07/15 05:06:29;;;;;;;;;2.00;2.00;;;;;24.26;59.34;100013.31;5050743;28;45524;-59
2023/07/15 05:08:55;;;;;;;;;2.00;2.00;;;;;23.70;59.93;99947.34;5047973;28;45049;-67
2023/07/15 05:11:21;;;;;;;;;0.33;0.33;;;;;24.25;59.80;100038.81;5026445;28;45136;-67
2023/07/15 05:13:47;;;;;;;;;2.00;2.00;;;;;24.27;59.96;100026.91;5040123;28;45442;-62
2023/07/15 05:16:14;;;;;;;;;1.00;1.00;;;;;24.25;59.54;100023.34;5045319;28;46139;-70
2023/07/15 05:18:40;;;;;;;;;2.00;1.00;;;;;24.25;59.20;100023.34;5051041;28;45295;-68
2023/07/15 05:21:06;;;;;;;;;2.33;1.00;;;;;24.23;59.25;100022.50;5048246;28;45428;-69
2023/07/15 05:23:31;;;;;;;;;0.00;0.00;;;;;24.19;59.14;100029.06;5045933;28;45203;-62
2023/07/15 05:25:59;;;;;;;;;2.00;2.00;;;;;23.97;59.31;99989.94;5050488;28;45393;-66
2023/07/15 05:28:29;;;;;;;;;2.00;0.67;;;;;24.20;59.00;100019.00;5031538;28;45028;-66
2023/07/15 05:30:56;;;;;;;;;3.00;1.00;;;;;24.11;58.76;100014.84;5049717;28;45286;-69
2023/07/15 05:33:22;;;;;;;;;2.00;1.00;;;;;24.18;58.86;100040.91;5049606;28;45135;-66
2023/07/15 05:35:48;;;;;;;;;1.00;1.00;;;;;24.12;59.04;100043.00;5037721;28;47969;-58
2023/07/15 05:38:15;;;;;;;;;2.00;2.00;;;;;24.14;58.54;100055.66;5047949;28;45345;-59
2023/07/15 05:40:41;;;;;;;;;1.00;1.00;;;;;24.12;58.47;100054.81;5050359;28;45170;-70
2023/07/15 05:43:08;;;;;;;;;1.00;1.00;;;;;23.95;58.25;100035.53;5043456;28;45351;-73
2023/07/15 05:45:33;;;;;;;;;1.33;1.33;;;;;24.03;58.40;100079.75;5050177;28;46522;-68
2023/07/15 05:47:59;;;;;;;;;1.00;1.00;;;;;24.02;58.61;100076.16;5049722;28;45670;-60
2023/07/15 05:50:24;;;;;;;;;2.00;1.00;;;;;23.98;58.97;100052.66;5031481;28;46043;-66
2023/07/15 05:52:50;;;;;;;;;1.00;1.00;;;;;24.05;58.18;100073.28;5050909;28;45138;-60
2023/07/15 05:55:18;;;;;;;;;2.00;2.00;;;;;24.01;57.79;100089.84;5044259;28;45511;-70
2023/07/15 05:57:44;;;;;;;;;1.00;1.00;;;;;23.87;56.88;100093.09;5026042;28;45151;-67
2023/07/15 06:00:10;;;;;;;;;3.33;1.00;;;;;23.86;57.28;100094.97;5044087;28;45365;-59
2023/07/15 06:02:38;;;;;;;;;2.33;1.33;;;;;23.73;57.10;100090.91;5050424;28;45143;-60
2023/07/15 06:05:04;;;;;;;;;0.33;0.33;;;;;23.80;56.95;100110.63;5049118;28;45361;-59
2023/07/15 06:07:29;;;;;;;;;2.33;1.00;;;;;23.77;55.95;100103.44;5050100;28;45052;-58
2023/07/15 06:09:55;;;;;;;;;1.00;1.00;;;;;23.60;56.11;100090.47;5030877;28;45257;-59
2023/07/15 06:12:21;;;;;;;;;4.67;2.00;;;;;23.65;55.78;100113.00;5044684;28;45186;-58
2023/07/15 06:14:46;;;;;;;;;1.00;1.00;;;;;23.66;56.47;100111.16;5025296;28;46599;-63
2023/07/15 06:17:12;;;;;;;;;3.00;1.00;;;;;23.68;55.81;100123.78;5029085;28;45403;-60
2023/07/15 06:19:37;;;;;;;;;1.00;1.00;;;;;23.70;56.10;100127.34;5051373;28;45469;-60
2023/07/15 06:22:02;;;;;;;;;1.33;1.33;;;;;23.66;55.22;100149.34;5050512;28;45138;-60
2023/07/15 06:24:28;;;;;;;;;3.33;2.00;;;;;23.67;55.67;100153.84;5046921;28;45107;-61
2023/07/15 06:26:54;;;;;;;;;2.00;2.00;;;;;23.70;56.59;100123.75;5032214;28;45039;-61
2023/07/15 06:29:19;;;;;;;;;2.00;1.00;;;;;23.69;57.10;100116.50;5046786;28;45108;-59
2023/07/15 06:31:49;;;;;;;;;4.67;1.00;;;;;23.69;56.94;100117.41;5049585;28;45124;-62
2023/07/15 06:34:14;;;;;;;;;2.00;2.00;;;;;23.55;57.17;100109.72;5048338;28;45246;-59
2023/07/15 06:36:40;;;;;;;;;2.00;2.00;;;;;23.51;56.89;100102.63;5050494;28;58051;-59
2023/07/15 06:39:05;;;;;;;;;2.00;2.00;;;;;23.70;57.63;100138.25;5035942;28;45201;-60
2023/07/15 06:41:33;;;;;;;;;3.33;1.00;;;;;23.66;57.97;100139.34;5052592;28;45230;-59
2023/07/15 06:43:59;;;;;;;;;3.00;1.00;;;;;23.71;57.25;100147.34;5052995;28;45098;-60
2023/07/15 06:46:27;;;;;;;;;1.67;1.00;;;;;23.65;57.76;100144.84;5034556;28;45104;-59
2023/07/15 06:48:52;;;;;;;;;1.00;1.00;;;;;23.66;55.77;100161.16;5052994;28;45097;-60
2023/07/15 06:51:24;;;;;;;;;3.00;2.00;;;;;23.37;56.81;100124.06;5051427;28;45228;-63
2023/07/15 06:53:49;;;;;;;;;1.00;1.00;;;;;23.53;57.12;100159.84;5053661;28;45132;-59
2023/07/15 06:56:15;;;;;;;;;5.00;2.67;;;;;23.55;57.24;100147.03;5052036;28;45283;-67
2023/07/15 06:58:40;;;;;;;;;2.00;1.33;;;;;23.51;56.46;100153.50;5035750;28;45232;-61
2023/07/15 07:01:06;;;;;;;;;2.00;2.00;;;;;23.56;56.65;100162.44;5046097;28;45063;-60
2023/07/15 07:03:32;;;;;;;;;3.33;2.00;;;;;23.52;56.06;100158.03;5054554;28;45429;-67
2023/07/15 07:05:58;;;;;;;;;2.00;1.00;;;;;23.58;56.76;100168.72;5054400;28;45115;-59
2023/07/15 07:08:23;;;;;;;;;1.00;0.00;;;;;23.55;55.94;100156.09;5052229;28;45036;-60
2023/07/15 07:10:52;;;;;;;;;2.00;2.00;;;;;23.52;55.99;100168.94;5055026;28;45201;-69
2023/07/15 07:13:49;;;;;;;;;;;;;;;;;;;;;
2023/07/15 07:16:16;;;;;;;;;2.33;2.00;;;;;23.59;56.58;100158.69;5044193;28;72267;-62
2023/07/15 07:18:44;;;;;;;;;1.00;1.00;;;;;23.52;57.26;100156.19;5028758;28;45485;-60
2023/07/15 07:21:11;;;;;;;;;3.00;2.00;;;;;23.53;57.10;100163.44;5052839;28;45205;-62
2023/07/15 07:23:36;;;;;;;;;1.33;1.33;;;;;23.48;58.02;100168.16;5051902;28;45942;-61
2023/07/15 07:26:02;;;;;;;;;1.67;1.67;;;;;23.43;57.51;100170.19;5034884;28;45415;-59
2023/07/15 07:28:42;;;;;;;;;1.00;1.00;;;;;23.35;56.93;100158.66;5053208;28;44890;-60
2023/07/15 07:31:11;;;;;;;;;5.00;4.00;;;;;23.43;57.47;100163.81;5053206;28;44914;-60
2023/07/15 07:33:38;;;;;;;;;1.00;1.00;;;;;23.38;57.01;100180.38;5046576;28;45219;-61
2023/07/15 07:36:06;;;;;;;;;2.00;2.00;;;;;23.36;56.94;100180.41;5048177;28;45138;-73
2023/07/15 07:38:57;;;;;;;;;1.00;1.00;;;;;23.31;56.72;100189.69;5035539;28;45034;-69
2023/07/15 07:41:27;;;;;;;;;1.00;1.00;;;;;22.99;56.34;100148.06;5049373;28;45209;-76
2023/07/15 07:43:52;;;;;;;;;1.00;1.00;;;;;22.91;56.18;100140.16;5048273;28;45152;-60
2023/07/15 07:46:18;;;;;;;;;3.33;1.33;;;;;23.20;55.46;100192.81;5051140;28;45584;-69
2023/07/15 07:48:46;;;;;;;;;4.00;2.00;;;;;23.14;55.80;100195.72;5052205;28;45155;-59
2023/07/15 07:51:11;;;;;;;;;2.00;2.00;;;;;22.58;55.09;100112.25;5047400;28;45270;-59
2023/07/15 07:53:37;;;;;;;;;0.00;0.00;;;;;23.00;55.07;100194.34;5053175;28;45628;-60
2023/07/15 07:56:02;;;;;;;;;1.00;1.00;;;;;23.01;55.14;100197.94;5049197;28;45468;-61
2023/07/15 07:58:27;;;;;;;;;1.00;1.00;;;;;22.97;54.52;100199.00;5050742;28;45365;-60
2023/07/15 08:00:53;;;;;;;;;2.67;1.00;;;;;22.96;54.40;100197.22;5050813;28;45298;-59
2023/07/15 08:03:18;;;;;;;;;1.00;1.00;;;;;22.97;54.26;100186.25;5051390;28;45533;-60
2023/07/15 08:05:47;;;;;;;;;2.00;2.00;;;;;23.02;54.07;100199.75;5046461;28;45697;-59
2023/07/15 08:08:13;;;;;;;;;0.00;0.00;;;;;22.99;53.78;100203.44;5029464;28;45692;-60
2023/07/15 08:10:42;;;;;;;;;1.00;0.67;;;;;23.02;53.29;100201.59;5048469;28;44969;-60
2023/07/15 08:13:07;;;;;;;;;1.00;1.00;;;;;22.98;53.22;100195.31;5048099;28;45635;-58
2023/07/15 08:15:34;;;;;;;;;1.33;1.00;;;;;23.05;53.07;100190.56;5050201;28;45137;-62
2023/07/15 08:18:01;;;;;;;;;3.33;1.00;;;;;23.17;53.05;100212.84;5049464;28;45442;-61
2023/07/15 08:20:30;;;;;;;;;1.00;1.00;;;;;23.22;52.84;100214.56;5031804;28;45165;-59
2023/07/15 08:22:57;;;;;;;;;1.00;1.00;;;;;23.28;52.03;100211.59;5033588;28;47817;-60
2023/07/15 08:25:22;;;;;;;;;2.00;2.00;;;;;23.31;52.41;100214.22;5048023;28;45104;-61
2023/07/15 08:27:51;;;;;;;;;1.00;1.00;;;;;23.34;52.26;100204.09;5031373;28;45385;-61
2023/07/15 08:31:14;;;;;;;;;;;;;;;;;;;;;
2023/07/15 08:33:41;;;;;;;;;3.00;3.00;;;;;23.54;51.45;100208.84;4980507;28;73949;-59
2023/07/15 08:36:25;;;;;;;;;2.00;1.33;;;;;23.29;51.50;100165.19;4975601;28;45052;-64
2023/07/15 08:39:02;;;;;;;;;1.00;1.00;;;;;23.40;51.83;100164.84;5036092;28;45128;-77
2023/07/15 08:41:28;;;;;;;;;2.00;1.00;;;;;23.78;51.50;100219.81;5028346;28;45223;-60
2023/07/15 08:44:10;;;;;;;;;2.00;2.00;;;;;23.83;50.89;100215.09;5034483;28;47182;-65
2023/07/15 08:46:37;;;;;;;;;1.00;1.00;;;;;23.54;51.20;100156.13;5027567;28;45818;-59
2023/07/15 08:49:03;;;;;;;;;2.00;2.00;;;;;23.92;51.71;100194.75;5050491;28;45192;-73
2023/07/15 08:51:34;;;;;;;;;4.00;2.67;;;;;24.05;50.93;100201.53;5051616;28;44974;-64
2023/07/15 08:54:07;;;;;;;;;0.00;0.00;;;;;23.67;50.67;100127.47;5030674;28;47098;-60
2023/07/15 08:56:36;;;;;;;;;9.00;5.00;;;;;24.12;50.77;100184.94;5027950;28;45118;-64
2023/07/15 08:59:06;;;;;;;;;2.00;2.00;;;;;24.34;50.46;100212.31;5051232;28;45554;-61
2023/07/15 09:01:37;;;;;;;;;1.00;1.00;;;;;24.40;50.00;100206.56;5051806;28;45273;-59
2023/07/15 09:04:09;;;;;;;;;1.00;1.00;;;;;24.27;50.17;100177.03;5051609;28;45807;-63
2023/07/15 09:06:35;;;;;;;;;1.33;1.00;;;;;24.16;50.13;100164.78;5043162;28;45324;-60
2023/07/15 09:09:01;;;;;;;;;1.67;1.67;;;;;24.40;50.04;100198.38;5043472;28;45092;-66
2023/07/15 09:11:39;;;;;;;;;0.67;0.67;;;;;24.34;49.96;100204.09;5051845;28;45103;-64
2023/07/15 09:14:15;;;;;;;;;1.00;1.00;;;;;24.24;50.01;100196.25;5051054;28;45482;-58
2023/07/15 09:16:41;;;;;;;;;0.67;0.00;;;;;24.27;49.64;100209.81;5050438;28;45225;-59
2023/07/15 09:19:07;;;;;;;;;3.00;2.00;;;;;24.20;49.16;100207.34;5029868;28;45211;-58
2023/07/15 09:21:35;;;;;;;;;3.00;2.00;;;;;24.20;49.59;100210.09;5050771;28;45392;-59
2023/07/15 09:24:01;;;;;;;;;2.67;2.67;;;;;24.19;49.11;100214.66;5049158;28;45284;-65
2023/07/15 09:26:28;;;;;;;;;2.00;2.00;;;;;24.19;49.03;100213.78;5049862;28;45151;-61
2023/07/15 09:28:59;;;;;;;;;2.33;2.00;;;;;24.18;48.67;100223.78;5050043;28;45094;-59
2023/07/15 09:31:25;;;;;;;;;4.00;1.00;;;;;24.09;48.88;100219.59;5051895;28;45295;-61
2023/07/15 09:33:51;;;;;;;;;1.00;1.00;;;;;24.10;49.52;100210.47;5051597;28;46224;-58
2023/07/15 09:36:30;;;;;;;;;3.33;2.00;;;;;24.15;49.88;100213.00;5050571;28;45119;-58
2023/07/15 09:39:10;;;;;;;;;1.33;1.33;;;;;24.22;49.39;100208.19;5050606;28;45491;-60
2023/07/15 09:41:35;;;;;;;;;3.00;3.00;;;;;24.21;49.24;100181.84;5049538;28;45281;-57
2023/07/15 09:44:01;;;;;;;;;6.00;5.00;;;;;23.83;49.36;100111.44;5044122;28;45987;-59
2023/07/15 09:46:29;;;;;;;;;2.00;2.00;;;;;24.35;49.11;100198.56;5050775;28;45140;-60
2023/07/15 09:48:59;;;;;;;;;2.00;1.00;;;;;24.26;49.38;100172.53;5051460;28;45098;-61
2023/07/15 09:51:25;;;;;;;;;1.67;1.67;;;;;24.46;49.08;100198.16;5051974;28;45373;-59
2023/07/15 09:53:55;;;;;;;;;2.00;2.00;;;;;24.47;49.16;100205.41;5050703;28;47032;-61
2023/07/15 09:56:34;;;;;;;;;3.00;3.00;;;;;24.54;49.37;100206.03;5050766;28;45153;-63
2023/07/15 09:59:24;;;;;;;;;6.00;3.00;;;;;24.61;49.49;100207.59;5051131;28;45029;-63
2023/07/15 10:02:01;;;;;;;;;5.00;3.00;;;;;24.71;49.63;100213.56;5034282;28;45346;-60
2023/07/15 10:04:43;;;;;;;;;4.67;3.00;;;;;24.90;49.33;100203.66;5077359;22;45190;-68
2023/07/15 10:07:09;;;;;;;;;6.00;4.00;;;;;25.02;48.89;100205.88;5074824;28;45182;-67
2023/07/15 10:09:35;;;;;;;;;4.00;3.00;;;;;25.08;48.45;100191.06;5075051;28;45151;-64
2023/07/15 10:12:02;;;;;;;;;4.00;3.00;;;;;25.26;48.46;100214.00;5071023;28;45194;-71
2023/07/15 10:14:31;;;;;;;;;4.33;2.67;;;;;25.10;48.15;100183.69;5060896;28;45490;-63
2023/07/15 10:17:14;;;;;;;;;3.00;3.00;;;;;25.19;48.02;100213.38;5068536;28;45256;-62
2023/07/15 10:19:46;;;;;;;;;3.33;3.33;;;;;25.26;48.20;100213.09;5064294;28;45416;-66
2023/07/15 10:22:13;;;;;;;;;6.67;2.67;;;;;25.31;48.71;100222.94;5069337;28;45302;-63
2023/07/15 10:24:43;;;;;;;;;4.00;4.00;;;;;25.41;48.21;100206.09;5070208;28;45337;-65
2023/07/15 10:27:11;;;;;;;;;5.00;4.00;;;;;25.37;47.89;100183.47;5070149;28;45082;-64
2023/07/15 10:29:39;;;;;;;;;3.67;3.00;;;;;25.44;47.21;100162.22;5071591;28;45229;-63
2023/07/15 10:32:08;;;;;;;;;2.67;2.67;;;;;25.55;46.72;100133.41;5069002;28;45209;-63
2023/07/15 10:34:47;;;;;;;;;6.00;5.00;;;;;25.12;46.50;100050.56;5070445;28;46734;-64
2023/07/15 10:37:15;;;;;;;;;1.33;1.33;;;;;25.70;46.50;100133.66;5069167;28;45089;-64
2023/07/15 10:39:42;;;;;;;;;3.33;3.00;;;;;25.72;46.35;100154.53;5071218;28;45348;-62
2023/07/15 10:42:10;;;;;;;;;3.00;3.00;;;;;25.89;46.09;100164.69;5071121;28;45032;-67
2023/07/15 10:44:46;;;;;;;;;2.33;2.33;;;;;26.03;44.50;100158.59;5065169;28;47370;-71
2023/07/15 10:47:20;;;;;;;;;2.00;2.00;;;;;26.25;44.07;100174.91;5074791;28;44858;-72
2023/07/15 10:49:46;;;;;;;;;3.33;3.00;;;;;26.24;43.52;100167.66;5068593;28;45210;-69
2023/07/15 10:52:18;;;;;;;;;3.67;2.67;;;;;26.19;43.88;100155.16;5063809;28;45121;-68
2023/07/15 10:54:44;;;;;;;;;3.33;2.00;;;;;26.26;43.13;100178.53;5064953;28;45622;-69
2023/07/15 10:57:14;;;;;;;;;4.67;2.67;;;;;26.21;43.28;100172.38;5069618;28;44964;-68
2023/07/15 10:59:42;;;;;;;;;3.00;2.00;;;;;26.18;43.56;100165.19;5064436;28;45388;-70
2023/07/15 11:04:41;;;;;;;;;1.00;1.00;;;;;26.33;44.27;100166.31;5070015;28;45285;-68
2023/07/15 11:07:07;;;;;;;;;3.33;2.00;;;;;26.34;43.66;100145.31;5071279;28;45320;-67
2023/07/15 11:09:37;;;;;;;;;3.33;2.00;;;;;26.54;43.71;100178.06;5070613;28;45435;-67
2023/07/15 11:12:07;;;;;;;;;3.67;1.33;;;;;26.44;43.38;100155.72;5067465;28;45389;-68
2023/07/15 11:14:33;;;;;;;;;2.00;2.00;;;;;26.43;43.31;100158.53;5069113;28;45526;-66
2023/07/15 11:17:00;;;;;;;;;7.00;2.67;;;;;26.54;43.53;100156.16;5036265;28;44977;-69
2023/07/15 11:19:28;;;;;;;;;3.67;3.00;;;;;26.64;43.33;100154.75;5068501;28;45242;-70
2023/07/15 11:21:59;;;;;;;;;3.33;3.33;;;;;26.69;43.11;100153.66;5069461;28;45562;-68
2023/07/15 11:24:26;;;;;;;;;5.67;3.33;;;;;26.67;43.12;100164.69;5070651;28;45779;-69
2023/07/15 11:26:52;;;;;;;;;4.67;2.00;;;;;26.78;42.96;100164.16;5069998;28;44989;-68
2023/07/15 11:29:22;;;;;;;;;4.00;2.00;;;;;26.78;43.55;100150.47;5067710;28;45138;-66
2023/07/15 11:31:52;;;;;;;;;3.00;3.00;;;;;26.80;43.26;100146.66;5069804;28;44969;-72
2023/07/15 11:34:20;;;;;;;;;1.67;1.67;;;;;26.77;42.95;100162.38;5071294;28;46052;-72